createdAt,value
2019-03-24T00:00:25.051Z,22.40
2019-03-24T00:01:25.023Z,23.50
2019-03-24T00:02:25.026Z,23.00
2019-03-24T00:03:25.001Z,17.10
2019-03-24T00:04:24.998Z,24.10
2019-03-24T00:05:25.037Z,20.60
2019-03-24T00:06:25.183Z,23.20
2019-03-24T00:07:24.956Z,22.80
2019-03-24T00:08:24.961Z,20.60
2019-03-24T00:09:24.935Z,21.90
2019-03-24T00:10:24.925Z,18.40
2019-03-24T00:11:24.964Z,18.10
2019-03-24T00:12:24.929Z,22.30
2019-03-24T00:13:25.081Z,22.20
2019-03-24T00:14:24.920Z,23.70
2019-03-24T00:15:26.538Z,19.60
2019-03-24T00:16:24.873Z,23.10
2019-03-24T00:17:24.909Z,20.90
2019-03-24T00:18:24.840Z,23.00
2019-03-24T00:19:24.851Z,20.80
2019-03-24T00:20:24.857Z,23.10
2019-03-24T00:21:24.806Z,19.50
2019-03-24T00:22:24.815Z,22.60
2019-03-24T00:23:24.819Z,20.70
2019-03-24T00:24:24.776Z,17.20
2019-03-24T00:25:24.768Z,20.60
2019-03-24T00:26:24.751Z,21.20
2019-03-24T00:27:24.881Z,18.40
2019-03-24T00:28:24.738Z,16.40
2019-03-24T00:29:24.776Z,17.40
2019-03-24T00:30:24.717Z,21.90
2019-03-24T00:31:24.707Z,16.90
2019-03-24T00:32:24.713Z,15.80
2019-03-24T00:33:24.679Z,18.70
2019-03-24T00:34:24.666Z,22.40
2019-03-24T00:35:24.707Z,16.30
2019-03-24T00:36:24.654Z,18.10
2019-03-24T00:37:24.654Z,16.40
2019-03-24T00:38:24.639Z,17.00
2019-03-24T00:39:24.614Z,16.70
2019-03-24T00:40:24.615Z,16.70
2019-03-24T00:41:24.605Z,18.20
2019-03-24T00:42:24.620Z,18.30
2019-03-24T00:43:24.601Z,19.60
2019-03-24T00:44:24.567Z,15.60
2019-03-24T00:45:24.562Z,15.10
2019-03-24T00:46:24.557Z,16.90
2019-03-24T00:47:24.538Z,16.50
2019-03-24T00:48:24.577Z,19.60
2019-03-24T00:49:24.523Z,20.30
2019-03-24T00:50:24.533Z,18.90
2019-03-24T00:51:24.500Z,17.90
2019-03-24T00:52:24.476Z,17.90
2019-03-24T00:53:24.511Z,20.40
2019-03-24T00:54:24.457Z,18.70
2019-03-24T00:55:24.462Z,18.70
2019-03-24T00:56:24.436Z,21.20
2019-03-24T00:57:24.425Z,18.20
2019-03-24T00:58:24.476Z,18.40
2019-03-24T00:59:24.406Z,18.80
2019-03-24T01:00:24.393Z,16.90
2019-03-24T01:01:24.381Z,21.50
2019-03-24T01:02:24.368Z,22.80
2019-03-24T01:03:24.385Z,17.90
2019-03-24T01:04:24.394Z,17.80
2019-03-24T01:05:24.337Z,18.90
2019-03-24T01:06:24.336Z,22.40
2019-03-24T01:07:24.317Z,17.20
2019-03-24T01:08:24.345Z,23.20
2019-03-24T01:09:24.352Z,22.70
2019-03-24T01:10:24.333Z,22.20
2019-03-24T01:11:24.275Z,22.20
2019-03-24T01:12:24.268Z,18.70
2019-03-24T01:13:24.322Z,26.20
2019-03-24T01:14:24.245Z,17.80
2019-03-24T01:15:24.239Z,20.70
2019-03-24T01:16:24.250Z,22.40
2019-03-24T01:17:24.209Z,24.60
2019-03-24T01:18:24.227Z,16.20
2019-03-24T01:19:24.193Z,23.20
2019-03-24T01:20:24.179Z,24.50
2019-03-24T01:21:24.168Z,18.90
2019-03-24T01:22:24.193Z,19.40
2019-03-24T01:23:24.148Z,24.10
2019-03-24T01:24:24.152Z,27.80
2019-03-24T01:25:24.141Z,24.40
2019-03-24T01:26:24.124Z,21.90
2019-03-24T01:27:24.145Z,22.40
2019-03-24T01:28:24.095Z,21.10
2019-03-24T01:29:24.146Z,22.70
2019-03-24T01:30:24.144Z,23.10
2019-03-24T01:31:24.077Z,25.70
2019-03-24T01:32:24.065Z,22.20
2019-03-24T01:33:24.047Z,22.10
2019-03-24T01:34:24.095Z,23.70
2019-03-24T01:35:24.014Z,24.70
2019-03-24T01:36:24.066Z,23.10
2019-03-24T01:37:24.024Z,27.00
2019-03-24T01:38:23.985Z,24.90
2019-03-24T01:39:23.991Z,23.80
2019-03-24T01:40:24.030Z,24.70
2019-03-24T01:41:23.975Z,26.80
2019-03-24T01:42:23.995Z,25.20
2019-03-24T01:43:23.958Z,26.90
2019-03-24T01:44:23.945Z,26.30
2019-03-24T01:45:23.932Z,21.60
2019-03-24T01:46:23.931Z,24.20
2019-03-24T01:47:23.912Z,27.10
2019-03-24T01:48:23.948Z,22.40
2019-03-24T01:49:23.883Z,23.90
2019-03-24T01:50:23.855Z,24.70
2019-03-24T01:51:23.879Z,30.50
2019-03-24T01:52:23.856Z,29.90
2019-03-24T01:53:23.851Z,29.20
2019-03-24T01:54:23.868Z,26.50
2019-03-24T01:55:23.812Z,25.80
2019-03-24T01:56:23.795Z,35.30
2019-03-24T01:57:23.787Z,31.30
2019-03-24T01:58:23.777Z,25.90
2019-03-24T01:59:23.833Z,30.20
2019-03-24T02:00:23.764Z,25.90
2019-03-24T02:01:23.748Z,28.10
2019-03-24T02:02:23.732Z,28.30
2019-03-24T02:03:23.718Z,26.60
2019-03-24T02:04:23.723Z,31.10
2019-03-24T02:05:23.736Z,31.10
2019-03-24T02:06:23.689Z,28.90
2019-03-24T02:07:23.677Z,38.70
2019-03-24T02:08:23.672Z,39.60
2019-03-24T02:09:23.681Z,31.20
2019-03-24T02:10:23.649Z,30.70
2019-03-24T02:11:23.683Z,32.60
2019-03-24T02:12:23.626Z,32.10
2019-03-24T02:13:23.627Z,33.00
2019-03-24T02:14:23.601Z,36.70
2019-03-24T02:15:23.608Z,35.90
2019-03-24T02:16:23.580Z,41.40
2019-03-24T02:17:23.573Z,32.80
2019-03-24T02:18:23.558Z,39.60
2019-03-24T02:19:23.584Z,37.20
2019-03-24T02:20:23.542Z,39.00
2019-03-24T02:21:23.543Z,32.60
2019-03-24T02:22:23.515Z,31.80
2019-03-24T02:23:23.510Z,40.10
2019-03-24T02:24:23.504Z,37.90
2019-03-24T02:25:23.485Z,39.30
2019-03-24T02:26:23.515Z,43.50
2019-03-24T02:27:23.483Z,41.10
2019-03-24T02:28:23.454Z,39.10
2019-03-24T02:29:23.456Z,40.10
2019-03-24T02:30:23.432Z,48.70
2019-03-24T02:31:23.416Z,37.90
2019-03-24T02:32:23.562Z,42.10
2019-03-24T02:33:23.417Z,37.80
2019-03-24T02:34:23.388Z,39.30
2019-03-24T02:35:23.411Z,39.70
2019-03-24T02:36:23.376Z,42.00
2019-03-24T02:37:23.358Z,41.50
2019-03-24T02:38:23.353Z,39.50
2019-03-24T02:39:23.331Z,41.40
2019-03-24T02:40:23.334Z,45.30
2019-03-24T02:41:23.388Z,43.40
2019-03-24T02:42:23.312Z,39.90
2019-03-24T02:43:23.309Z,48.50
2019-03-24T02:44:23.290Z,37.60
2019-03-24T02:45:23.284Z,44.20
2019-03-24T02:46:24.900Z,41.80
2019-03-24T02:47:23.295Z,39.90
2019-03-24T02:48:23.234Z,41.80
2019-03-24T02:49:23.303Z,43.60
2019-03-24T02:50:23.238Z,40.00
2019-03-24T02:51:23.221Z,41.90
2019-03-24T02:52:23.198Z,45.30
2019-03-24T02:53:23.202Z,47.10
2019-03-24T02:54:23.175Z,38.20
2019-03-24T02:55:23.183Z,42.60
2019-03-24T02:56:23.170Z,42.30
2019-03-24T02:57:23.156Z,37.80
2019-03-24T02:58:23.127Z,49.20
2019-03-24T02:59:23.128Z,43.80
2019-03-24T03:00:23.134Z,39.80
2019-03-24T03:01:23.313Z,43.70
2019-03-24T03:02:23.146Z,40.80
2019-03-24T03:03:23.078Z,40.60
2019-03-24T03:04:23.064Z,41.00
2019-03-24T03:05:23.085Z,43.30
2019-03-24T03:06:23.047Z,43.40
2019-03-24T03:07:23.030Z,40.40
2019-03-24T03:08:23.103Z,39.40
2019-03-24T03:09:23.017Z,39.90
2019-03-24T03:10:23.026Z,41.80
2019-03-24T03:11:23.011Z,42.60
2019-03-24T03:12:22.988Z,38.80
2019-03-24T03:13:22.969Z,47.80
2019-03-24T03:14:22.970Z,38.70
2019-03-24T03:15:22.966Z,46.60
2019-03-24T03:16:22.932Z,42.00
2019-03-24T03:17:22.952Z,37.60
2019-03-24T03:18:22.918Z,38.00
2019-03-24T03:19:22.900Z,41.70
2019-03-24T03:20:22.904Z,42.00
2019-03-24T03:21:22.908Z,44.10
2019-03-24T03:22:23.090Z,45.10
2019-03-24T03:23:22.857Z,43.00
2019-03-24T03:24:22.844Z,47.20
2019-03-24T03:25:22.831Z,43.70
2019-03-24T03:26:22.821Z,43.50
2019-03-24T03:27:22.907Z,47.10
2019-03-24T03:28:22.830Z,44.80
2019-03-24T03:29:22.804Z,42.30
2019-03-24T03:30:22.789Z,53.20
2019-03-24T03:31:22.777Z,43.80
2019-03-24T03:32:22.758Z,48.50
2019-03-24T03:33:22.898Z,49.20
2019-03-24T03:34:22.750Z,46.30
2019-03-24T03:35:22.765Z,52.10
2019-03-24T03:36:22.739Z,50.00
2019-03-24T03:37:22.704Z,48.90
2019-03-24T03:38:22.706Z,49.00
2019-03-24T03:39:22.692Z,51.40
2019-03-24T03:40:22.671Z,55.90
2019-03-24T03:41:22.689Z,49.40
2019-03-24T03:42:22.664Z,43.70
2019-03-24T03:43:22.863Z,51.20
2019-03-24T03:44:22.633Z,50.80
2019-03-24T03:45:22.615Z,54.80
2019-03-24T03:46:22.624Z,51.20
2019-03-24T03:47:22.596Z,47.60
2019-03-24T03:48:22.587Z,44.20
2019-03-24T03:49:22.621Z,42.90
2019-03-24T03:50:22.565Z,46.60
2019-03-24T03:51:22.554Z,49.70
2019-03-24T03:52:22.558Z,54.10
2019-03-24T03:53:22.529Z,48.30
2019-03-24T03:54:22.521Z,51.00
2019-03-24T03:55:22.517Z,51.40
2019-03-24T03:56:22.526Z,46.30
2019-03-24T03:57:22.489Z,44.60
2019-03-24T03:58:22.492Z,44.60
2019-03-24T03:59:22.474Z,51.80
2019-03-24T04:00:22.457Z,51.30
2019-03-24T04:01:22.460Z,47.10
2019-03-24T04:02:22.458Z,50.80
2019-03-24T04:03:22.423Z,52.40
2019-03-24T04:04:22.621Z,49.30
2019-03-24T04:05:22.409Z,47.40
2019-03-24T04:06:22.414Z,46.00
2019-03-24T04:07:22.398Z,50.50
2019-03-24T04:08:22.391Z,44.10
2019-03-24T04:09:22.359Z,48.00
2019-03-24T04:10:22.352Z,46.50
2019-03-24T04:11:22.341Z,43.90
2019-03-24T04:12:22.344Z,46.60
2019-03-24T04:13:22.323Z,50.00
2019-03-24T04:14:22.356Z,45.50
2019-03-24T04:15:22.293Z,47.10
2019-03-24T04:16:22.287Z,47.50
2019-03-24T04:17:22.291Z,41.30
2019-03-24T04:18:22.264Z,51.80
2019-03-24T04:19:22.256Z,44.00
2019-03-24T04:20:22.266Z,49.80
2019-03-24T04:21:22.230Z,49.00
2019-03-24T04:22:22.242Z,44.50
2019-03-24T04:23:22.217Z,42.50
2019-03-24T04:24:22.198Z,43.60
2019-03-24T04:25:22.392Z,46.60
2019-03-24T04:26:22.205Z,42.30
2019-03-24T04:27:22.179Z,44.00
2019-03-24T04:28:22.153Z,41.60
2019-03-24T04:29:22.145Z,40.90
2019-03-24T04:30:22.139Z,40.50
2019-03-24T04:31:22.129Z,48.50
2019-03-24T04:32:22.154Z,48.00
2019-03-24T04:33:22.109Z,48.30
2019-03-24T04:34:22.093Z,48.50
2019-03-24T04:35:22.090Z,46.20
2019-03-24T04:36:22.068Z,35.90
2019-03-24T04:37:22.077Z,38.00
2019-03-24T04:38:22.104Z,45.40
2019-03-24T04:39:22.037Z,37.40
2019-03-24T04:40:22.030Z,43.60
2019-03-24T04:41:22.018Z,41.80
2019-03-24T04:42:22.020Z,36.70
2019-03-24T04:43:22.010Z,43.80
2019-03-24T04:44:21.990Z,37.40
2019-03-24T04:45:21.971Z,36.50
2019-03-24T04:46:22.018Z,39.70
2019-03-24T04:47:21.968Z,38.50
2019-03-24T04:48:21.943Z,34.00
2019-03-24T04:49:21.929Z,31.70
2019-03-24T04:50:21.935Z,36.00
2019-03-24T04:51:21.913Z,32.90
2019-03-24T04:52:21.916Z,32.60
2019-03-24T04:53:21.888Z,32.60
2019-03-24T04:54:21.881Z,33.10
2019-03-24T04:55:21.879Z,28.40
2019-03-24T04:56:21.887Z,32.20
2019-03-24T04:57:21.867Z,34.70
2019-03-24T04:58:21.835Z,29.50
2019-03-24T04:59:21.830Z,30.10
2019-03-24T05:00:21.814Z,23.20
2019-03-24T05:01:21.805Z,29.10
2019-03-24T05:02:21.832Z,29.20
2019-03-24T05:03:21.794Z,30.90
2019-03-24T05:04:21.774Z,28.00
2019-03-24T05:05:21.761Z,31.50
2019-03-24T05:06:21.752Z,28.30
2019-03-24T05:07:21.759Z,27.50
2019-03-24T05:08:21.761Z,27.20
2019-03-24T05:09:21.720Z,27.50
2019-03-24T05:10:21.710Z,23.50
2019-03-24T05:11:21.700Z,28.70
2019-03-24T05:12:21.686Z,28.10
2019-03-24T05:13:21.678Z,22.60
2019-03-24T05:14:21.715Z,26.30
2019-03-24T05:15:21.654Z,27.30
2019-03-24T05:16:21.649Z,29.60
2019-03-24T05:17:26.898Z,24.80
2019-03-24T05:18:22.630Z,23.30
2019-03-24T05:19:21.614Z,29.30
2019-03-24T05:20:21.644Z,25.50
2019-03-24T05:21:21.601Z,29.80
2019-03-24T05:22:21.584Z,27.00
2019-03-24T05:23:21.588Z,32.40
2019-03-24T05:24:21.561Z,23.20
2019-03-24T05:25:23.676Z,21.30
2019-03-24T05:26:21.564Z,23.90
2019-03-24T05:27:21.534Z,22.70
2019-03-24T05:28:21.539Z,24.40
2019-03-24T05:29:21.507Z,21.10
2019-03-24T05:30:21.502Z,22.60
2019-03-24T05:31:21.488Z,20.40
2019-03-24T05:32:21.536Z,29.40
2019-03-24T05:33:21.468Z,20.40
2019-03-24T05:34:21.470Z,25.10
2019-03-24T05:35:21.445Z,24.40
2019-03-24T05:36:21.433Z,25.80
2019-03-24T05:37:21.426Z,22.90
2019-03-24T05:38:21.457Z,23.60
2019-03-24T05:39:21.410Z,29.10
2019-03-24T05:40:21.395Z,21.70
2019-03-24T05:41:21.383Z,20.70
2019-03-24T05:42:21.372Z,22.60
2019-03-24T05:43:21.381Z,23.00
2019-03-24T05:44:21.387Z,21.70
2019-03-24T05:45:21.342Z,21.00
2019-03-24T05:46:21.329Z,21.00
2019-03-24T05:47:21.323Z,26.60
2019-03-24T05:48:21.328Z,26.00
2019-03-24T05:49:21.303Z,21.90
2019-03-24T05:50:21.297Z,20.20
2019-03-24T05:51:21.338Z,20.70
2019-03-24T05:52:21.275Z,20.70
2019-03-24T05:53:21.274Z,22.40
2019-03-24T05:54:21.249Z,19.80
2019-03-24T05:55:21.240Z,21.40
2019-03-24T05:56:21.227Z,21.80
2019-03-24T05:57:21.236Z,25.00
2019-03-24T05:58:21.233Z,19.50
2019-03-24T05:59:21.193Z,19.50
2019-03-24T06:00:21.183Z,21.20
2019-03-24T06:01:21.177Z,19.20
2019-03-24T06:02:21.167Z,19.20
2019-03-24T06:03:21.151Z,24.10
2019-03-24T06:04:21.187Z,22.30
2019-03-24T06:05:21.135Z,19.10
2019-03-24T06:06:21.124Z,21.70
2019-03-24T06:07:21.111Z,26.60
2019-03-24T06:08:21.102Z,21.00
2019-03-24T06:09:21.091Z,27.60
2019-03-24T06:10:21.118Z,19.90
2019-03-24T06:11:21.281Z,16.00
2019-03-24T06:12:21.066Z,18.80
2019-03-24T06:13:21.068Z,20.90
2019-03-24T06:14:21.037Z,18.30
2019-03-24T06:15:21.030Z,19.00
2019-03-24T06:16:21.047Z,14.70
2019-03-24T06:17:21.009Z,21.40
2019-03-24T06:18:20.995Z,20.20
2019-03-24T06:19:21.002Z,18.10
2019-03-24T06:20:20.974Z,15.80
2019-03-24T06:21:20.963Z,16.50
2019-03-24T06:22:20.966Z,18.30
2019-03-24T06:23:20.965Z,17.80
2019-03-24T06:24:20.938Z,18.80
2019-03-24T06:25:20.929Z,17.50
2019-03-24T06:26:20.907Z,17.70
2019-03-24T06:27:20.898Z,20.10
2019-03-24T06:28:20.888Z,16.80
2019-03-24T06:29:20.898Z,16.00
2019-03-24T06:30:20.889Z,17.00
2019-03-24T06:31:20.857Z,16.40
2019-03-24T06:32:20.895Z,17.30
2019-03-24T06:33:20.835Z,17.90
2019-03-24T06:34:20.826Z,21.60
2019-03-24T06:35:20.834Z,15.90
2019-03-24T06:36:20.814Z,20.30
2019-03-24T06:37:20.807Z,21.80
2019-03-24T06:38:20.801Z,18.80
2019-03-24T06:39:20.811Z,19.30
2019-03-24T06:40:20.760Z,16.90
2019-03-24T06:41:20.755Z,23.20
2019-03-24T06:42:20.739Z,20.30
2019-03-24T06:43:20.729Z,17.30
2019-03-24T06:44:20.743Z,19.30
2019-03-24T06:45:28.274Z,19.70
2019-03-24T06:46:21.706Z,20.00
2019-03-24T06:47:20.696Z,19.60
2019-03-24T06:48:20.678Z,22.80
2019-03-24T06:49:20.760Z,21.60
2019-03-24T06:50:20.660Z,20.30
2019-03-24T06:51:20.671Z,20.40
2019-03-24T06:52:20.637Z,20.00
2019-03-24T06:53:20.696Z,19.70
2019-03-24T06:54:20.636Z,19.80
2019-03-24T06:55:20.645Z,19.50
2019-03-24T06:56:20.601Z,19.10
2019-03-24T06:57:20.596Z,23.10
2019-03-24T06:58:20.660Z,22.00
2019-03-24T06:59:20.582Z,20.50
2019-03-24T07:00:20.553Z,18.60
2019-03-24T07:01:20.581Z,17.80
2019-03-24T07:02:20.540Z,19.10
2019-03-24T07:03:20.529Z,17.30
2019-03-24T07:04:20.518Z,22.60
2019-03-24T07:05:20.522Z,17.60
2019-03-24T07:06:20.492Z,20.70
2019-03-24T07:07:20.532Z,17.40
2019-03-24T07:08:20.485Z,16.30
2019-03-24T07:09:20.479Z,20.20
2019-03-24T07:10:20.470Z,15.70
2019-03-24T07:11:20.451Z,20.70
2019-03-24T07:12:20.432Z,17.90
2019-03-24T07:13:20.419Z,18.40
2019-03-24T07:14:20.407Z,18.90
2019-03-24T07:15:20.624Z,17.80
2019-03-24T07:16:20.393Z,13.80
2019-03-24T07:17:20.388Z,13.30
2019-03-24T07:18:20.368Z,13.20
2019-03-24T07:19:20.412Z,16.20
2019-03-24T07:20:20.362Z,17.30
2019-03-24T07:21:20.333Z,15.50
2019-03-24T07:22:20.358Z,15.70
2019-03-24T07:23:20.310Z,15.60
2019-03-24T07:24:20.312Z,16.80
2019-03-24T07:25:20.308Z,17.60
2019-03-24T07:26:20.297Z,16.70
2019-03-24T07:27:20.306Z,22.80
2019-03-24T07:28:20.260Z,14.70
2019-03-24T07:29:20.242Z,16.80
2019-03-24T07:30:20.251Z,16.40
2019-03-24T07:31:20.226Z,15.90
2019-03-24T07:32:20.216Z,18.60
2019-03-24T07:33:20.271Z,21.50
2019-03-24T07:34:20.195Z,20.40
2019-03-24T07:35:20.192Z,18.40
2019-03-24T07:36:20.201Z,19.70
2019-03-24T07:37:20.167Z,14.90
2019-03-24T07:38:20.147Z,13.30
2019-03-24T07:39:20.189Z,18.60
2019-03-24T07:40:20.155Z,14.40
2019-03-24T07:41:20.133Z,16.50
2019-03-24T07:42:20.134Z,14.40
2019-03-24T07:43:20.095Z,15.30
2019-03-24T07:44:20.090Z,15.10
2019-03-24T07:45:20.117Z,15.30
2019-03-24T07:46:20.090Z,20.00
2019-03-24T07:47:20.057Z,16.30
2019-03-24T07:48:20.045Z,18.10
2019-03-24T07:49:20.090Z,17.00
2019-03-24T07:50:20.046Z,14.60
2019-03-24T07:51:20.007Z,16.80
2019-03-24T07:52:19.993Z,12.50
2019-03-24T07:53:19.983Z,17.50
2019-03-24T07:54:19.972Z,15.50
2019-03-24T07:55:19.972Z,18.30
2019-03-24T07:56:20.016Z,21.20
2019-03-24T07:57:20.167Z,19.20
2019-03-24T07:58:19.945Z,15.60
2019-03-24T07:59:19.948Z,16.30
2019-03-24T08:00:19.931Z,14.20
2019-03-24T08:01:19.947Z,20.40
2019-03-24T08:02:19.917Z,20.00
2019-03-24T08:03:19.877Z,20.30
2019-03-24T08:04:19.945Z,18.40
2019-03-24T08:05:19.861Z,16.30
2019-03-24T08:06:19.845Z,19.10
2019-03-24T08:07:19.854Z,14.60
2019-03-24T08:08:19.826Z,14.80
2019-03-24T08:09:19.841Z,15.10
2019-03-24T08:10:19.803Z,15.60
2019-03-24T08:11:19.807Z,16.80
2019-03-24T08:12:19.816Z,18.80
2019-03-24T08:13:19.795Z,20.70
2019-03-24T08:14:19.762Z,18.00
2019-03-24T08:15:19.748Z,21.70
2019-03-24T08:16:19.744Z,19.40
2019-03-24T08:17:19.784Z,19.00
2019-03-24T08:18:29.563Z,24.00
2019-03-24T08:19:20.723Z,15.70
2019-03-24T08:20:19.700Z,17.50
2019-03-24T08:21:19.694Z,16.10
2019-03-24T08:22:19.702Z,16.20
2019-03-24T08:23:19.684Z,13.90
2019-03-24T08:24:19.651Z,16.00
2019-03-24T08:25:19.670Z,16.90
2019-03-24T08:26:19.636Z,16.20
2019-03-24T08:27:19.625Z,18.20
2019-03-24T08:28:19.610Z,21.10
2019-03-24T08:29:19.631Z,16.40
2019-03-24T08:30:19.594Z,13.90
2019-03-24T08:31:19.598Z,18.20
2019-03-24T08:32:19.573Z,19.20
2019-03-24T08:33:19.557Z,19.30
2019-03-24T08:34:19.552Z,21.50
2019-03-24T08:35:19.536Z,17.20
2019-03-24T08:36:19.553Z,17.00
2019-03-24T08:37:19.536Z,16.80
2019-03-24T08:38:19.505Z,17.10
2019-03-24T08:39:19.499Z,17.40
2019-03-24T08:40:19.489Z,23.20
2019-03-24T08:41:19.471Z,15.50
2019-03-24T08:42:19.472Z,17.40
2019-03-24T08:43:19.541Z,16.90
2019-03-24T08:44:19.442Z,16.70
2019-03-24T08:45:19.437Z,16.90
2019-03-24T08:46:19.421Z,17.70
2019-03-24T08:47:19.407Z,21.30
2019-03-24T08:48:19.410Z,17.30
2019-03-24T08:49:19.408Z,19.60
2019-03-24T08:50:19.399Z,18.90
2019-03-24T08:51:19.371Z,19.00
2019-03-24T08:52:19.367Z,15.90
2019-03-24T08:53:19.396Z,18.40
2019-03-24T08:54:19.335Z,21.10
2019-03-24T08:55:19.326Z,18.90
2019-03-24T08:56:19.351Z,19.30
2019-03-24T08:57:19.322Z,19.90
2019-03-24T08:58:19.294Z,21.00
2019-03-24T08:59:19.279Z,16.20
2019-03-24T09:00:29.885Z,16.00
2019-03-24T09:01:20.256Z,19.20
2019-03-24T09:02:19.296Z,17.60
2019-03-24T09:03:19.245Z,16.60
2019-03-24T09:04:19.227Z,19.50
2019-03-24T09:05:19.227Z,20.00
2019-03-24T09:06:19.209Z,16.90
2019-03-24T09:07:19.213Z,18.10
2019-03-24T09:08:19.216Z,16.10
2019-03-24T09:09:19.177Z,13.40
2019-03-24T09:10:19.163Z,17.20
2019-03-24T09:11:19.149Z,17.20
2019-03-24T09:12:19.157Z,19.20
2019-03-24T09:13:19.131Z,22.50
2019-03-24T09:14:19.148Z,18.20
2019-03-24T09:15:19.110Z,18.50
2019-03-24T09:16:19.097Z,16.30
2019-03-24T09:17:19.100Z,14.20
2019-03-24T09:18:19.077Z,16.00
2019-03-24T09:19:19.068Z,17.20
2019-03-24T09:20:19.066Z,15.70
2019-03-24T09:21:19.663Z,16.50
2019-03-24T09:22:19.064Z,12.60
2019-03-24T09:23:19.019Z,18.70
2019-03-24T09:24:19.008Z,17.10
2019-03-24T09:25:19.070Z,13.70
2019-03-24T09:26:18.987Z,13.30
2019-03-24T09:27:19.008Z,15.30
2019-03-24T09:28:19.016Z,16.70
2019-03-24T09:29:18.951Z,15.90
2019-03-24T09:30:18.946Z,14.10
2019-03-24T09:31:18.932Z,16.30
2019-03-24T09:32:18.941Z,15.60
2019-03-24T09:33:18.910Z,12.80
2019-03-24T09:34:18.911Z,12.00
2019-03-24T09:35:18.897Z,15.50
2019-03-24T09:36:18.878Z,13.90
2019-03-24T09:37:18.883Z,14.40
2019-03-24T09:38:18.852Z,16.00
2019-03-24T09:39:18.843Z,15.50
2019-03-24T09:40:18.892Z,15.80
2019-03-24T09:41:18.828Z,13.30
2019-03-24T09:42:18.809Z,16.10
2019-03-24T09:43:18.825Z,13.10
2019-03-24T09:44:18.790Z,18.40
2019-03-24T09:45:18.775Z,14.90
2019-03-24T09:46:18.801Z,14.00
2019-03-24T09:47:18.766Z,14.80
2019-03-24T09:48:18.745Z,17.20
2019-03-24T09:49:18.757Z,19.00
2019-03-24T09:50:18.725Z,15.90
2019-03-24T09:51:21.018Z,15.30
2019-03-24T09:52:18.717Z,14.50
2019-03-24T09:53:18.718Z,13.80
2019-03-24T09:54:18.680Z,18.30
2019-03-24T09:55:18.685Z,14.50
2019-03-24T09:56:18.663Z,16.90
2019-03-24T09:57:18.647Z,17.70
2019-03-24T09:58:18.638Z,12.40
2019-03-24T09:59:18.645Z,19.10
2019-03-24T10:00:18.621Z,19.00
2019-03-24T10:01:18.800Z,17.30
2019-03-24T10:02:18.622Z,19.70
2019-03-24T10:03:18.609Z,21.60
2019-03-24T10:04:18.600Z,20.60
2019-03-24T10:05:18.597Z,20.00
2019-03-24T10:06:18.551Z,17.20
2019-03-24T10:07:18.600Z,15.30
2019-03-24T10:08:18.533Z,16.90
2019-03-24T10:09:18.518Z,18.80
2019-03-24T10:10:18.521Z,21.30
2019-03-24T10:11:18.518Z,15.00
2019-03-24T10:12:18.510Z,18.50
2019-03-24T10:13:18.478Z,17.50
2019-03-24T10:14:18.471Z,15.00
2019-03-24T10:15:18.457Z,20.60
2019-03-24T10:16:18.470Z,16.30
2019-03-24T10:17:18.455Z,15.70
2019-03-24T10:18:18.423Z,20.40
2019-03-24T10:19:18.410Z,19.80
2019-03-24T10:20:18.407Z,15.80
2019-03-24T10:21:18.386Z,19.30
2019-03-24T10:22:18.422Z,17.50
2019-03-24T10:23:18.369Z,22.00
2019-03-24T10:24:18.353Z,18.00
2019-03-24T10:25:18.347Z,17.10
2019-03-24T10:26:18.332Z,19.00
2019-03-24T10:27:18.321Z,16.90
2019-03-24T10:28:18.346Z,20.70
2019-03-24T10:29:18.312Z,20.70
2019-03-24T10:30:18.301Z,17.60
2019-03-24T10:31:18.297Z,20.00
2019-03-24T10:32:18.271Z,17.90
2019-03-24T10:33:18.257Z,16.40
2019-03-24T10:34:18.263Z,18.90
2019-03-24T10:35:18.237Z,20.70
2019-03-24T10:36:18.227Z,20.00
2019-03-24T10:37:18.250Z,21.50
2019-03-24T10:38:18.222Z,19.90
2019-03-24T10:39:18.201Z,16.80
2019-03-24T10:40:28.245Z,21.30
2019-03-24T10:41:19.168Z,20.90
2019-03-24T10:42:18.161Z,14.60
2019-03-24T10:43:18.201Z,16.60
2019-03-24T10:44:18.142Z,15.10
2019-03-24T10:45:18.130Z,21.00
2019-03-24T10:46:18.486Z,18.20
2019-03-24T10:47:18.125Z,21.70
2019-03-24T10:48:18.110Z,17.20
2019-03-24T10:49:24.672Z,18.20
2019-03-24T10:50:19.127Z,17.80
2019-03-24T10:51:18.072Z,18.10
2019-03-24T10:52:18.087Z,17.00
2019-03-24T10:53:18.088Z,19.20
2019-03-24T10:54:18.054Z,14.00
2019-03-24T10:55:18.025Z,15.60
2019-03-24T10:56:18.013Z,15.70
2019-03-24T10:57:18.032Z,13.10
2019-03-24T10:58:18.008Z,13.90
2019-03-24T10:59:17.977Z,15.30
2019-03-24T11:00:17.987Z,18.90
2019-03-24T11:01:17.994Z,12.70
2019-03-24T11:02:17.953Z,16.70
2019-03-24T11:03:18.055Z,15.70
2019-03-24T11:04:17.942Z,16.50
2019-03-24T11:05:17.941Z,16.40
2019-03-24T11:06:17.902Z,18.90
2019-03-24T11:07:17.950Z,14.70
2019-03-24T11:08:17.936Z,19.40
2019-03-24T11:09:17.880Z,14.70
2019-03-24T11:10:17.860Z,17.00
2019-03-24T11:11:17.861Z,19.50
2019-03-24T11:12:17.844Z,12.90
2019-03-24T11:13:17.858Z,12.80
2019-03-24T11:14:17.925Z,16.70
2019-03-24T11:15:17.804Z,15.60
2019-03-24T11:16:17.821Z,14.50
2019-03-24T11:17:17.785Z,14.30
2019-03-24T11:18:17.796Z,15.20
2019-03-24T11:19:17.788Z,13.40
2019-03-24T11:20:17.755Z,11.00
2019-03-24T11:21:17.745Z,10.30
2019-03-24T11:22:17.729Z,10.60
2019-03-24T11:23:17.745Z,9.50
2019-03-24T11:24:17.720Z,15.70
2019-03-24T11:25:17.747Z,14.40
2019-03-24T11:26:17.686Z,11.20
2019-03-24T11:27:17.676Z,13.80
2019-03-24T11:28:19.247Z,13.90
2019-03-24T11:29:17.672Z,15.20
2019-03-24T11:30:17.656Z,14.10
2019-03-24T11:31:17.639Z,11.80
2019-03-24T11:32:17.693Z,13.30
2019-03-24T11:33:17.615Z,13.10
2019-03-24T11:34:17.616Z,13.30
2019-03-24T11:35:17.666Z,13.60
2019-03-24T11:36:17.891Z,10.80
2019-03-24T11:37:17.578Z,11.90
2019-03-24T11:38:17.659Z,14.10
2019-03-24T11:39:17.550Z,11.10
2019-03-24T11:40:17.543Z,12.50
2019-03-24T11:41:17.595Z,10.10
2019-03-24T11:42:17.517Z,11.70
2019-03-24T11:43:17.528Z,15.80
2019-03-24T11:44:17.498Z,9.10
2019-03-24T11:45:17.483Z,9.50
2019-03-24T11:46:17.514Z,11.60
2019-03-24T11:47:26.327Z,11.00
2019-03-24T11:48:18.479Z,10.30
2019-03-24T11:49:17.668Z,11.20
2019-03-24T11:50:17.429Z,12.70
2019-03-24T11:51:17.428Z,10.60
2019-03-24T11:52:17.465Z,10.70
2019-03-24T11:53:17.731Z,11.80
2019-03-24T11:54:17.390Z,14.10
2019-03-24T11:55:17.400Z,16.40
2019-03-24T11:56:17.374Z,14.10
2019-03-24T11:57:17.361Z,11.60
2019-03-24T11:58:17.347Z,12.70
2019-03-24T11:59:17.692Z,15.80
2019-03-24T12:00:17.335Z,13.90
2019-03-24T12:01:17.315Z,13.50
2019-03-24T12:02:17.349Z,12.70
2019-03-24T12:03:17.297Z,13.90
2019-03-24T12:04:17.282Z,13.90
2019-03-24T12:05:17.292Z,16.50
2019-03-24T12:06:17.279Z,12.20
2019-03-24T12:07:17.263Z,13.60
2019-03-24T12:08:17.297Z,15.60
2019-03-24T12:09:17.228Z,13.80
2019-03-24T12:10:17.422Z,15.30
2019-03-24T12:11:17.225Z,11.10
2019-03-24T12:12:17.192Z,11.80
2019-03-24T12:13:17.195Z,13.50
2019-03-24T12:14:17.246Z,11.10
2019-03-24T12:15:17.163Z,10.90
2019-03-24T12:16:17.151Z,9.90
2019-03-24T12:17:17.143Z,11.70
2019-03-24T12:18:17.127Z,12.00
2019-03-24T12:19:17.119Z,15.20
2019-03-24T12:20:17.139Z,11.90
2019-03-24T12:21:17.095Z,12.90
2019-03-24T12:22:17.085Z,14.00
2019-03-24T12:23:17.074Z,12.80
2019-03-24T12:24:17.065Z,10.90
2019-03-24T12:25:17.057Z,12.70
2019-03-24T12:26:17.067Z,12.40
2019-03-24T12:27:17.124Z,10.70
2019-03-24T12:28:17.043Z,14.60
2019-03-24T12:29:17.031Z,11.30
2019-03-24T12:30:17.025Z,14.40
2019-03-24T12:31:17.046Z,12.50
2019-03-24T12:32:16.978Z,12.40
2019-03-24T12:33:17.018Z,12.80
2019-03-24T12:34:17.001Z,12.30
2019-03-24T12:35:16.951Z,14.00
2019-03-24T12:36:16.945Z,11.10
2019-03-24T12:37:16.939Z,10.60
2019-03-24T12:38:16.916Z,12.10
2019-03-24T12:39:17.010Z,12.30
2019-03-24T12:40:16.901Z,11.40
2019-03-24T12:41:16.912Z,10.90
2019-03-24T12:42:16.886Z,12.50
2019-03-24T12:43:19.691Z,13.40
2019-03-24T12:44:16.860Z,9.30
2019-03-24T12:45:16.926Z,10.70
2019-03-24T12:46:16.836Z,9.40
2019-03-24T12:47:16.820Z,11.10
2019-03-24T12:48:16.894Z,14.00
2019-03-24T12:49:16.807Z,14.00
2019-03-24T12:50:16.845Z,14.20
2019-03-24T12:51:16.800Z,10.50
2019-03-24T12:52:16.780Z,15.80